createdAt,value
2023-03-06T00:00:27.910Z,61.82
2023-03-06T00:03:00.711Z,61.79
2023-03-06T00:05:27.407Z,61.86
2023-03-06T00:07:54.490Z,61.81
2023-03-06T00:10:27.247Z,61.84
2023-03-06T00:13:00.515Z,61.81
2023-03-06T00:15:28.192Z,61.90
2023-03-06T00:17:55.458Z,61.93
2023-03-06T00:20:23.555Z,61.83
2023-03-06T00:22:52.693Z,61.86
2023-03-06T00:25:20.804Z,61.98
2023-03-06T00:27:49.593Z,62.18
2023-03-06T00:30:25.158Z,62.34
2023-03-06T00:32:55.959Z,62.21
2023-03-06T00:35:33.545Z,62.42
2023-03-06T00:38:00.384Z,63.27
2023-03-06T00:40:30.081Z,64.63
2023-03-06T00:42:57.360Z,65.76
2023-03-06T00:45:25.574Z,67.58
2023-03-06T00:47:53.012Z,69.50
2023-03-06T00:50:19.596Z,70.64
2023-03-06T00:52:47.944Z,71.61
2023-03-06T00:55:14.825Z,72.62
2023-03-06T00:57:42.312Z,73.95
2023-03-06T01:00:11.514Z,74.54
2023-03-06T01:02:38.494Z,75.26
2023-03-06T01:05:06.961Z,75.89
2023-03-06T01:07:35.953Z,76.31
2023-03-06T01:10:05.287Z,77.37
2023-03-06T01:12:32.493Z,77.68
2023-03-06T01:14:59.311Z,78.74
2023-03-06T01:17:26.259Z,78.57
2023-03-06T01:21:31.430Z,79.20
2023-03-06T01:24:00.414Z,79.69
2023-03-06T01:26:28.961Z,79.99
2023-03-06T01:28:59.831Z,80.46
2023-03-06T01:31:30.387Z,80.40
2023-03-06T01:33:58.420Z,79.96
2023-03-06T01:36:26.940Z,79.93
2023-03-06T01:38:56.833Z,80.24
2023-03-06T01:41:25.191Z,80.48
2023-03-06T01:43:55.136Z,80.45
2023-03-06T01:46:34.988Z,80.53
2023-03-06T01:49:14.956Z,80.54
2023-03-06T01:51:52.762Z,80.30
2023-03-06T01:54:29.870Z,80.37
2023-03-06T01:57:02.282Z,80.61
2023-03-06T01:59:30.348Z,80.93
2023-03-06T02:01:58.661Z,81.00
2023-03-06T02:04:26.837Z,81.28
2023-03-06T02:06:54.966Z,81.35
2023-03-06T02:09:24.519Z,81.07
2023-03-06T02:11:54.934Z,81.28
2023-03-06T02:14:23.844Z,81.62
2023-03-06T02:16:56.558Z,81.73
2023-03-06T02:19:53.663Z,81.92
2023-03-06T02:22:21.709Z,81.80
2023-03-06T02:25:05.453Z,81.60
2023-03-06T02:27:35.558Z,81.71
2023-03-06T02:30:08.899Z,81.87
2023-03-06T02:32:37.712Z,81.83
2023-03-06T02:35:17.933Z,81.92
2023-03-06T02:37:46.064Z,81.92
2023-03-06T02:40:15.158Z,81.84
2023-03-06T02:42:49.295Z,81.62
2023-03-06T02:45:20.688Z,81.79
2023-03-06T02:47:51.102Z,82.00
2023-03-06T02:50:22.593Z,82.02
2023-03-06T02:52:50.584Z,82.38
2023-03-06T02:55:19.089Z,82.59
2023-03-06T02:57:47.435Z,82.47
2023-03-06T03:00:16.497Z,82.50
2023-03-06T03:02:45.773Z,82.82
2023-03-06T03:05:14.464Z,82.99
2023-03-06T03:07:47.602Z,83.03
2023-03-06T03:10:16.222Z,83.27
2023-03-06T03:12:47.475Z,83.43
2023-03-06T03:15:16.475Z,83.11
2023-03-06T03:17:44.627Z,82.96
2023-03-06T03:20:15.927Z,83.06
2023-03-06T03:22:52.863Z,83.33
2023-03-06T03:25:21.528Z,83.57
2023-03-06T03:27:49.695Z,83.79
2023-03-06T03:30:18.685Z,83.95
2023-03-06T03:32:48.810Z,83.91
2023-03-06T03:35:16.812Z,84.03
2023-03-06T03:37:45.103Z,84.20
2023-03-06T03:40:13.912Z,84.46
2023-03-06T03:42:44.315Z,84.87
2023-03-06T03:45:12.385Z,84.95
2023-03-06T03:47:45.756Z,84.70
2023-03-06T03:50:14.089Z,84.41
2023-03-06T03:52:42.615Z,84.43
2023-03-06T03:55:12.450Z,84.78
2023-03-06T03:57:43.249Z,84.71
2023-03-06T04:00:16.223Z,84.82
2023-03-06T04:02:53.100Z,84.81
2023-03-06T04:05:29.423Z,84.82
2023-03-06T04:08:03.462Z,84.93
2023-03-06T04:10:32.597Z,85.06
2023-03-06T04:13:00.822Z,85.20
2023-03-06T04:15:33.580Z,85.17
2023-03-06T04:18:02.814Z,84.95
2023-03-06T04:20:30.998Z,84.97
2023-03-06T04:23:00.938Z,85.09
2023-03-06T04:25:29.396Z,85.28
2023-03-06T04:28:00.150Z,85.23
2023-03-06T04:30:29.997Z,85.17
2023-03-06T04:32:59.143Z,84.90
2023-03-06T04:35:28.470Z,85.00
2023-03-06T04:38:01.245Z,85.27
2023-03-06T04:40:32.974Z,85.50
2023-03-06T04:43:02.293Z,85.38
2023-03-06T04:45:31.132Z,85.29
2023-03-06T04:48:02.990Z,85.21
2023-03-06T04:50:32.740Z,85.19
2023-03-06T04:53:03.681Z,85.49
2023-03-06T04:55:32.901Z,85.23
2023-03-06T04:58:00.958Z,85.05
2023-03-06T05:00:31.761Z,84.74
2023-03-06T05:03:01.389Z,84.84
2023-03-06T05:05:29.807Z,85.04
2023-03-06T05:07:58.732Z,84.75
2023-03-06T05:10:27.854Z,84.81
2023-03-06T05:12:56.627Z,84.61
2023-03-06T05:15:24.694Z,84.31
2023-03-06T05:17:53.936Z,84.57
2023-03-06T05:20:22.015Z,84.73
2023-03-06T05:22:56.241Z,84.89
2023-03-06T05:25:25.490Z,85.18
2023-03-06T05:27:53.767Z,84.93
2023-03-06T05:30:23.364Z,84.64
2023-03-06T05:32:52.339Z,84.73
2023-03-06T05:35:22.363Z,84.92
2023-03-06T05:37:51.851Z,84.72
2023-03-06T05:40:20.683Z,84.65
2023-03-06T05:42:49.158Z,84.67
2023-03-06T05:45:17.807Z,84.24
2023-03-06T05:47:46.464Z,83.93
2023-03-06T05:50:17.110Z,83.74
2023-03-06T05:52:46.480Z,83.89
2023-03-06T05:55:15.679Z,83.78
2023-03-06T05:57:44.333Z,83.43
2023-03-06T06:00:14.917Z,83.25
2023-03-06T06:02:47.532Z,82.68
2023-03-06T06:05:16.041Z,82.38
2023-03-06T06:07:47.431Z,82.58
2023-03-06T06:10:16.522Z,82.63
2023-03-06T06:12:45.014Z,82.76
2023-03-06T06:15:13.459Z,82.70
2023-03-06T06:17:42.604Z,82.44
2023-03-06T06:20:11.644Z,82.19
2023-03-06T06:22:40.546Z,82.28
2023-03-06T06:25:10.564Z,81.99
2023-03-06T06:27:39.373Z,81.71
2023-03-06T06:30:08.226Z,81.36
2023-03-06T06:32:40.760Z,81.02
2023-03-06T06:35:09.938Z,80.55
2023-03-06T06:37:38.439Z,80.50
2023-03-06T06:40:07.297Z,80.63
2023-03-06T06:42:39.811Z,80.41
2023-03-06T06:45:10.467Z,79.96
2023-03-06T06:47:41.496Z,79.90
2023-03-06T06:50:14.844Z,79.81
2023-03-06T06:52:43.070Z,79.43
2023-03-06T06:55:17.579Z,78.84
2023-03-06T06:57:45.618Z,78.99
2023-03-06T07:00:14.676Z,79.46
2023-03-06T07:02:44.105Z,79.22
2023-03-06T07:05:12.210Z,78.77
2023-03-06T07:07:42.340Z,78.17
2023-03-06T07:10:14.878Z,77.77
2023-03-06T07:12:48.571Z,77.80
2023-03-06T07:15:17.525Z,76.62
2023-03-06T07:17:48.184Z,75.97
2023-03-06T07:20:19.357Z,75.35
2023-03-06T07:22:51.690Z,74.66
2023-03-06T07:25:20.535Z,73.83
2023-03-06T07:27:54.452Z,73.36
2023-03-06T07:30:23.050Z,73.71
2023-03-06T07:32:55.471Z,73.23
2023-03-06T07:35:24.044Z,72.66
2023-03-06T07:37:53.442Z,72.37
2023-03-06T07:40:21.574Z,72.46
2023-03-06T07:42:50.095Z,72.28
2023-03-06T07:45:22.156Z,72.10
2023-03-06T07:47:51.016Z,70.87
2023-03-06T07:50:19.362Z,70.60
2023-03-06T07:52:48.217Z,70.58
2023-03-06T07:55:16.216Z,70.19
2023-03-06T07:57:45.127Z,70.26
2023-03-06T08:00:14.977Z,70.66
2023-03-06T08:02:44.709Z,70.66
2023-03-06T08:05:14.889Z,70.35
2023-03-06T08:07:45.140Z,69.70
2023-03-06T08:10:14.357Z,68.59
2023-03-06T08:12:42.559Z,68.50
2023-03-06T08:15:11.873Z,68.31
2023-03-06T08:17:41.192Z,69.08
2023-03-06T08:20:10.478Z,69.31
2023-03-06T08:22:38.662Z,70.18
2023-03-06T08:25:07.308Z,70.73
2023-03-06T08:27:35.989Z,71.25
2023-03-06T08:30:04.946Z,71.91
2023-03-06T08:32:36.457Z,70.78
2023-03-06T08:35:05.212Z,70.40
2023-03-06T08:37:33.791Z,69.60
2023-03-06T08:40:04.762Z,69.38
2023-03-06T08:42:36.902Z,68.97
2023-03-06T08:45:07.175Z,69.19
2023-03-06T08:47:36.099Z,69.27
2023-03-06T08:50:04.710Z,70.46
2023-03-06T08:52:33.219Z,71.88
2023-03-06T08:55:03.686Z,72.46
2023-03-06T08:57:32.299Z,71.38
2023-03-06T09:00:27.530Z,69.97
2023-03-06T09:02:58.132Z,69.37
2023-03-06T09:05:26.262Z,68.48
2023-03-06T09:07:54.877Z,68.44
2023-03-06T09:10:26.366Z,65.78
2023-03-06T09:12:56.346Z,64.74
2023-03-06T09:15:26.032Z,64.72
2023-03-06T09:17:56.089Z,65.20
2023-03-06T09:20:25.085Z,64.46
2023-03-06T09:22:53.644Z,65.53
2023-03-06T09:25:23.362Z,64.10
2023-03-06T09:28:08.669Z,62.22
2023-03-06T09:30:45.216Z,60.15
2023-03-06T09:33:15.404Z,59.45
2023-03-06T09:35:49.755Z,58.86
2023-03-06T09:38:19.256Z,59.28
2023-03-06T09:41:15.000Z,59.89
2023-03-06T09:43:45.773Z,59.79
2023-03-06T09:46:31.656Z,57.13
2023-03-06T09:49:10.499Z,56.23
2023-03-06T09:52:06.998Z,56.05
2023-03-06T09:54:44.434Z,55.60
2023-03-06T09:57:22.721Z,55.97
2023-03-06T09:59:53.290Z,55.65
2023-03-06T10:02:48.556Z,55.76
2023-03-06T10:05:20.552Z,55.31
2023-03-06T10:07:57.108Z,54.97
2023-03-06T10:10:52.410Z,57.04
2023-03-06T10:13:37.459Z,56.58
2023-03-06T10:16:23.544Z,54.99
2023-03-06T10:18:51.653Z,54.79
2023-03-06T10:21:43.674Z,53.00
2023-03-06T10:24:49.614Z,50.60
2023-03-06T10:27:38.621Z,49.27
2023-03-06T10:30:10.767Z,41.97
2023-03-06T10:32:58.803Z,42.26
2023-03-06T10:35:45.558Z,41.82
2023-03-06T10:38:21.149Z,44.94
2023-03-06T10:41:12.176Z,45.04
2023-03-06T10:43:42.079Z,44.44
2023-03-06T10:46:12.398Z,45.33
2023-03-06T10:48:42.452Z,44.56
2023-03-06T10:51:24.997Z,41.41
2023-03-06T10:54:00.202Z,39.61
2023-03-06T10:56:39.488Z,38.98
2023-03-06T10:59:25.868Z,40.35
2023-03-06T11:02:00.738Z,39.46
2023-03-06T11:04:33.480Z,40.20
2023-03-06T11:07:17.463Z,37.75
2023-03-06T11:10:19.141Z,36.64
2023-03-06T11:13:01.576Z,36.83
2023-03-06T11:15:29.985Z,37.82
2023-03-06T11:18:05.581Z,39.22
2023-03-06T11:20:50.089Z,40.05
2023-03-06T11:23:28.146Z,40.81
2023-03-06T11:26:14.821Z,40.59
2023-03-06T11:29:09.332Z,39.63
2023-03-06T11:31:39.741Z,38.62
2023-03-06T11:34:11.625Z,36.42
2023-03-06T11:37:00.630Z,37.16
2023-03-06T11:39:31.987Z,37.73
2023-03-06T11:42:11.129Z,37.27
2023-03-06T11:45:04.322Z,36.95
2023-03-06T11:47:35.410Z,36.52
2023-03-06T11:50:27.929Z,37.88
2023-03-06T11:53:00.455Z,38.95
2023-03-06T11:55:29.302Z,37.78
2023-03-06T11:58:22.913Z,38.01
2023-03-06T12:01:12.018Z,34.71
2023-03-06T12:04:02.570Z,32.93
2023-03-06T12:06:38.395Z,33.23
2023-03-06T12:09:12.752Z,34.69
2023-03-06T12:11:44.963Z,33.66
2023-03-06T12:14:22.088Z,33.75
2023-03-06T12:16:58.729Z,34.39
2023-03-06T12:19:36.258Z,34.56
2023-03-06T12:22:23.290Z,34.03
2023-03-06T12:25:36.422Z,34.36
2023-03-06T12:28:08.801Z,34.01
2023-03-06T12:30:40.952Z,35.27
2023-03-06T12:33:32.958Z,35.29
2023-03-06T12:36:22.576Z,34.97
2023-03-06T12:39:05.679Z,35.63
2023-03-06T12:41:48.890Z,34.50
2023-03-06T12:44:23.535Z,34.15
2023-03-06T12:47:11.992Z,33.66
2023-03-06T12:49:41.933Z,33.28
2023-03-06T12:52:18.734Z,33.93
2023-03-06T12:54:49.432Z,34.06
2023-03-06T12:57:17.364Z,33.73
2023-03-06T12:59:50.083Z,33.73
2023-03-06T13:02:37.775Z,33.37
2023-03-06T13:05:24.288Z,32.37
2023-03-06T13:08:13.147Z,32.17
2023-03-06T13:10:41.260Z,32.19
2023-03-06T13:13:34.244Z,31.98
2023-03-06T13:16:03.414Z,31.23
2023-03-06T13:18:35.230Z,31.15
2023-03-06T13:21:04.551Z,31.06
2023-03-06T13:23:33.942Z,30.77
2023-03-06T13:26:04.646Z,30.44
2023-03-06T13:28:50.232Z,30.60
2023-03-06T13:31:36.512Z,30.08
2023-03-06T13:34:26.561Z,29.80
2023-03-06T13:39:56.159Z,30.55
2023-03-06T13:42:35.860Z,31.05
2023-03-06T13:45:16.977Z,31.50
2023-03-06T13:48:21.184Z,33.19
2023-03-06T13:50:45.842Z,33.96
2023-03-06T13:53:22.071Z,34.12
2023-03-06T13:56:17.796Z,34.83
2023-03-06T13:58:46.590Z,35.48
2023-03-06T14:01:23.823Z,35.87
2023-03-06T14:04:13.114Z,37.24
2023-03-06T14:06:41.855Z,38.01
2023-03-06T14:09:40.899Z,38.43
2023-03-06T14:12:17.684Z,38.68
2023-03-06T14:15:11.805Z,38.89
2023-03-06T14:17:38.615Z,39.14
2023-03-06T14:20:13.934Z,39.14
2023-03-06T14:22:40.674Z,39.55
2023-03-06T14:25:28.280Z,40.15
2023-03-06T14:28:00.425Z,40.75
2023-03-06T14:30:34.335Z,41.19
2023-03-06T14:33:01.629Z,41.11
2023-03-06T14:35:30.480Z,40.85
2023-03-06T14:38:04.091Z,41.18
2023-03-06T14:40:36.066Z,41.14
2023-03-06T14:43:21.723Z,41.65
2023-03-06T14:46:07.379Z,41.87
2023-03-06T14:48:41.649Z,42.03
2023-03-06T14:51:17.584Z,42.08
2023-03-06T14:53:45.168Z,42.22
2023-03-06T14:56:22.406Z,42.80
2023-03-06T14:58:59.200Z,43.01
2023-03-06T15:01:45.655Z,43.03
2023-03-06T15:04:40.226Z,43.38
2023-03-06T15:07:10.899Z,44.10
2023-03-06T15:09:38.341Z,44.00
2023-03-06T15:12:08.064Z,44.35
2023-03-06T15:14:39.011Z,44.44
2023-03-06T15:17:19.041Z,45.52
2023-03-06T15:19:46.768Z,46.35
2023-03-06T15:22:37.238Z,46.88
2023-03-06T15:25:26.843Z,47.71
2023-03-06T15:28:18.467Z,47.97
2023-03-06T15:31:02.031Z,49.03
2023-03-06T15:33:33.576Z,50.82
2023-03-06T15:36:05.372Z,51.58
2023-03-06T15:38:43.463Z,52.08
2023-03-06T15:41:31.351Z,52.55
2023-03-06T15:43:59.752Z,52.93
2023-03-06T15:46:27.376Z,53.23
2023-03-06T15:48:59.117Z,53.52
2023-03-06T15:51:27.145Z,53.74
2023-03-06T15:53:57.213Z,54.08
2023-03-06T15:56:34.726Z,54.42
2023-03-06T15:59:04.064Z,54.63
2023-03-06T16:01:31.522Z,54.64
2023-03-06T16:04:02.776Z,54.56
2023-03-06T16:06:29.888Z,54.75
2023-03-06T16:08:57.066Z,54.98
2023-03-06T16:11:32.535Z,55.16
2023-03-06T16:14:02.402Z,55.27
2023-03-06T16:16:33.995Z,55.24
2023-03-06T16:19:06.060Z,55.05
2023-03-06T16:21:35.054Z,54.63
2023-03-06T16:24:03.379Z,54.42
2023-03-06T16:26:32.260Z,54.30
2023-03-06T16:28:58.979Z,54.15
2023-03-06T16:31:25.682Z,53.70
2023-03-06T16:33:59.770Z,53.71
2023-03-06T16:36:27.057Z,53.78
2023-03-06T16:38:54.087Z,53.76
2023-03-06T16:41:20.565Z,53.73
2023-03-06T16:43:50.804Z,53.79
2023-03-06T16:46:20.230Z,53.60
2023-03-06T16:48:49.684Z,53.74
2023-03-06T16:51:18.664Z,54.14
2023-03-06T16:53:47.312Z,54.48
2023-03-06T16:56:15.759Z,54.63
2023-03-06T16:58:42.996Z,54.74
2023-03-06T17:01:09.895Z,54.87
2023-03-06T17:03:36.713Z,55.29
2023-03-06T17:06:26.726Z,55.54
2023-03-06T17:08:53.600Z,55.99
2023-03-06T17:11:24.191Z,56.35
2023-03-06T17:13:58.213Z,56.51
2023-03-06T17:16:25.039Z,56.91
2023-03-06T17:18:51.810Z,57.29
2023-03-06T17:21:19.739Z,57.36
2023-03-06T17:23:46.531Z,57.75
2023-03-06T17:26:20.440Z,58.04
2023-03-06T17:28:47.948Z,58.25
2023-03-06T17:31:20.274Z,58.55
2023-03-06T17:33:47.487Z,58.62
2023-03-06T17:36:14.934Z,58.86
2023-03-06T17:38:46.609Z,59.22
2023-03-06T17:41:14.124Z,59.62
2023-03-06T17:43:41.563Z,59.82
2023-03-06T17:46:10.027Z,60.03
2023-03-06T17:48:37.052Z,60.25
2023-03-06T17:51:08.818Z,60.78
2023-03-06T17:53:36.400Z,61.29
2023-03-06T17:56:07.268Z,61.55
2023-03-06T17:58:34.451Z,62.14
2023-03-06T18:01:12.083Z,62.48
2023-03-06T18:03:38.856Z,62.84
2023-03-06T18:06:08.796Z,63.32
2023-03-06T18:08:37.813Z,64.13
2023-03-06T18:11:05.616Z,64.55
2023-03-06T18:13:32.906Z,64.90
2023-03-06T18:16:01.976Z,65.66
2023-03-06T18:18:31.622Z,66.15
2023-03-06T18:21:04.517Z,66.70
2023-03-06T18:23:32.337Z,66.77
2023-03-06T18:26:19.775Z,67.19
2023-03-06T18:28:49.071Z,67.32
2023-03-06T18:31:19.849Z,67.41
2023-03-06T18:33:48.109Z,67.64
2023-03-06T18:36:15.107Z,67.64
2023-03-06T18:38:44.011Z,67.98
2023-03-06T18:41:12.020Z,68.46
2023-03-06T18:43:38.997Z,68.67
2023-03-06T18:46:06.101Z,69.03
2023-03-06T18:48:32.715Z,69.62
2023-03-06T18:51:06.790Z,69.67
2023-03-06T18:53:35.665Z,69.37
2023-03-06T18:56:02.755Z,69.84
2023-03-06T18:58:30.983Z,70.24
2023-03-06T19:00:59.583Z,70.79
2023-03-06T19:03:26.738Z,71.17
2023-03-06T19:05:55.202Z,71.18
2023-03-06T19:08:22.213Z,71.36
2023-03-06T19:10:49.403Z,71.58
2023-03-06T19:13:18.316Z,72.16
2023-03-06T19:15:46.545Z,72.31
2023-03-06T19:18:14.951Z,71.95
2023-03-06T19:20:43.404Z,72.14
2023-03-06T19:23:11.085Z,72.70
2023-03-06T19:25:40.669Z,73.16
2023-03-06T19:28:07.420Z,73.24
2023-03-06T19:30:39.395Z,73.63
2023-03-06T19:33:07.393Z,73.65
2023-03-06T19:35:34.684Z,74.08
2023-03-06T19:38:01.653Z,74.36
2023-03-06T19:40:28.726Z,74.32
2023-03-06T19:42:55.577Z,74.38
2023-03-06T19:45:22.529Z,74.30
2023-03-06T19:47:57.265Z,74.63
2023-03-06T19:50:27.941Z,74.61
2023-03-06T19:52:55.912Z,74.79
2023-03-06T19:55:27.912Z,74.48
2023-03-06T19:57:54.765Z,74.34
2023-03-06T20:00:21.670Z,74.35
2023-03-06T20:02:49.071Z,74.57
2023-03-06T20:05:16.632Z,74.77
2023-03-06T20:07:43.573Z,74.95
2023-03-06T20:10:10.912Z,75.00
2023-03-06T20:12:38.221Z,74.74
2023-03-06T20:15:09.650Z,74.75
2023-03-06T20:17:40.145Z,74.77
2023-03-06T20:20:13.861Z,75.04
2023-03-06T20:22:41.516Z,75.17
2023-03-06T20:25:12.483Z,75.17
2023-03-06T20:27:40.223Z,75.00
2023-03-06T20:30:08.157Z,75.30
2023-03-06T20:32:41.251Z,75.31
2023-03-06T20:35:08.837Z,75.42
2023-03-06T20:37:37.126Z,75.42
2023-03-06T20:40:05.061Z,75.65
2023-03-06T20:42:31.800Z,75.36
2023-03-06T20:44:59.189Z,75.43
2023-03-06T20:47:26.222Z,75.49
2023-03-06T20:49:53.387Z,75.67
2023-03-06T20:52:19.990Z,75.89
2023-03-06T20:54:46.842Z,75.85
2023-03-06T20:57:13.747Z,75.82
2023-03-06T20:59:40.646Z,75.69
2023-03-06T21:02:09.804Z,75.59
2023-03-06T21:04:40.669Z,75.61
2023-03-06T21:07:08.432Z,75.97
2023-03-06T21:09:39.239Z,76.04
2023-03-06T21:12:08.582Z,76.38
2023-03-06T21:14:35.769Z,76.35
2023-03-06T21:17:02.413Z,76.16
2023-03-06T21:19:32.943Z,75.94
2023-03-06T21:22:00.393Z,75.99
2023-03-06T21:24:28.584Z,76.23
2023-03-06T21:26:56.696Z,76.23
2023-03-06T21:29:23.596Z,76.27
2023-03-06T21:31:55.367Z,76.43
2023-03-06T21:34:22.324Z,76.24
2023-03-06T21:36:50.570Z,76.20
2023-03-06T21:39:17.233Z,76.37
2023-03-06T21:41:44.148Z,76.51
2023-03-06T21:44:11.446Z,76.49
2023-03-06T21:46:38.351Z,76.84
2023-03-06T21:49:05.432Z,76.91
2023-03-06T21:51:33.184Z,76.84
2023-03-06T21:54:02.205Z,76.80
2023-03-06T21:56:29.004Z,77.07
2023-03-06T21:58:55.990Z,77.30
2023-03-06T22:01:32.071Z,77.39
2023-03-06T22:03:59.436Z,77.75
2023-03-06T22:06:28.993Z,77.70
2023-03-06T22:08:58.978Z,77.54
2023-03-06T22:11:30.705Z,77.93
2023-03-06T22:13:59.801Z,78.29
2023-03-06T22:16:26.963Z,78.78
2023-03-06T22:18:53.859Z,79.05
2023-03-06T22:21:21.527Z,78.84
2023-03-06T22:23:51.909Z,78.96
2023-03-06T22:26:18.964Z,79.13
2023-03-06T22:28:45.621Z,79.39
2023-03-06T22:31:14.543Z,79.56
2023-03-06T22:33:41.807Z,79.62
2023-03-06T22:36:12.971Z,79.42
2023-03-06T22:38:45.416Z,79.19
2023-03-06T22:41:13.672Z,79.27
2023-03-06T22:43:40.481Z,79.34
2023-03-06T22:46:12.779Z,79.39
2023-03-06T22:48:42.246Z,79.31
2023-03-06T22:51:14.049Z,79.13
2023-03-06T22:53:42.349Z,78.91
2023-03-06T22:56:12.128Z,79.02
2023-03-06T22:58:39.762Z,79.02
2023-03-06T23:01:20.588Z,78.97
2023-03-06T23:03:51.712Z,79.11
2023-03-06T23:06:25.396Z,79.17
2023-03-06T23:08:54.507Z,79.19
2023-03-06T23:11:22.279Z,78.90
2023-03-06T23:14:12.467Z,79.00
2023-03-06T23:17:01.043Z,78.88
2023-03-06T23:19:48.293Z,78.96
2023-03-06T23:22:33.988Z,78.82
2023-03-06T23:25:22.512Z,78.58
2023-03-06T23:27:49.470Z,78.52
2023-03-06T23:30:16.791Z,78.53
2023-03-06T23:32:45.852Z,78.58
2023-03-06T23:35:13.884Z,78.53
2023-03-06T23:37:41.521Z,78.34
2023-03-06T23:40:09.621Z,77.89
2023-03-06T23:42:36.440Z,77.95
2023-03-06T23:45:03.489Z,78.14
2023-03-06T23:47:32.521Z,78.31
2023-03-06T23:49:59.245Z,78.54
2023-03-06T23:52:26.718Z,78.28
2023-03-06T23:54:53.419Z,78.20
2023-03-06T23:57:20.232Z,78.15
2023-03-06T23:59:47.485Z,78.36
